createdAt,value
2022-11-15T00:01:26.956Z,9.50
2022-11-15T00:04:12.447Z,9.50
2022-11-15T00:06:57.990Z,9.60
2022-11-15T00:09:46.131Z,9.60
2022-11-15T00:12:31.433Z,9.70
2022-11-15T00:15:17.025Z,9.70
2022-11-15T00:18:02.208Z,9.70
2022-11-15T00:20:47.727Z,9.60
2022-11-15T00:23:34.377Z,9.60
2022-11-15T00:26:19.736Z,9.70
2022-11-15T00:29:04.947Z,9.70
2022-11-15T00:31:50.598Z,9.70
2022-11-15T00:34:36.095Z,9.80
2022-11-15T00:37:21.597Z,9.80
2022-11-15T00:40:07.812Z,9.90
2022-11-15T00:42:53.393Z,10.00
2022-11-15T00:45:38.819Z,10.10
2022-11-15T00:48:24.542Z,10.20
2022-11-15T00:51:09.678Z,10.20
2022-11-15T00:53:54.923Z,10.20
2022-11-15T00:56:40.135Z,10.30
2022-11-15T00:59:25.620Z,10.30
2022-11-15T01:02:10.993Z,10.30
2022-11-15T01:04:56.968Z,10.30
2022-11-15T01:07:42.596Z,10.30
2022-11-15T01:10:28.113Z,10.30
2022-11-15T01:13:13.441Z,10.30
2022-11-15T01:15:59.103Z,10.40
2022-11-15T01:18:45.831Z,10.40
2022-11-15T01:21:31.217Z,10.40
2022-11-15T01:24:16.674Z,10.40
2022-11-15T01:27:01.913Z,10.40
2022-11-15T01:29:47.237Z,10.40
2022-11-15T01:32:32.686Z,10.50
2022-11-15T01:35:18.101Z,10.40
2022-11-15T01:38:03.593Z,10.40
2022-11-15T01:40:49.507Z,10.50
2022-11-15T01:43:36.243Z,10.40
2022-11-15T01:46:36.676Z,10.40
2022-11-15T01:49:22.077Z,10.40
2022-11-15T01:52:10.283Z,10.40
2022-11-15T01:55:16.945Z,10.40
2022-11-15T01:58:02.953Z,10.40
2022-11-15T02:00:48.921Z,10.30
2022-11-15T02:03:49.932Z,10.20
2022-11-15T02:06:35.756Z,10.20
2022-11-15T02:09:21.323Z,10.20
2022-11-15T02:12:08.088Z,10.30
2022-11-15T02:14:54.378Z,10.30
2022-11-15T02:18:08.431Z,10.30
2022-11-15T02:20:59.160Z,10.30
2022-11-15T02:24:12.389Z,10.30
2022-11-15T02:27:16.476Z,10.30
2022-11-15T02:30:35.127Z,10.30
2022-11-15T02:33:33.431Z,10.20
2022-11-15T02:36:42.446Z,10.30
2022-11-15T02:39:45.346Z,10.30
2022-11-15T02:42:52.915Z,10.30
2022-11-15T02:45:42.574Z,10.20
2022-11-15T02:48:28.092Z,10.20
2022-11-15T02:51:13.680Z,10.20
2022-11-15T02:53:59.256Z,10.10
2022-11-15T02:56:44.965Z,10.10
2022-11-15T02:59:39.007Z,10.10
2022-11-15T03:02:43.590Z,10.00
2022-11-15T03:05:38.720Z,10.10
2022-11-15T03:08:42.599Z,10.00
2022-11-15T03:11:27.872Z,10.10
2022-11-15T03:14:46.811Z,10.00
2022-11-15T03:17:36.691Z,10.00
2022-11-15T03:20:22.271Z,10.00
2022-11-15T03:23:09.991Z,10.00
2022-11-15T03:25:55.213Z,10.00
2022-11-15T03:28:48.968Z,10.00
2022-11-15T03:31:50.423Z,10.00
2022-11-15T03:34:40.837Z,9.90
2022-11-15T03:37:33.621Z,9.90
2022-11-15T03:40:19.057Z,9.80
2022-11-15T03:43:17.033Z,9.80
2022-11-15T03:46:04.610Z,9.80
2022-11-15T03:48:55.219Z,9.80
2022-11-15T03:51:40.548Z,9.80
2022-11-15T03:54:25.828Z,9.70
2022-11-15T03:57:11.359Z,9.70
2022-11-15T03:59:56.785Z,9.70
2022-11-15T04:02:42.299Z,9.60
2022-11-15T04:05:27.549Z,9.60
2022-11-15T04:08:13.148Z,9.50
2022-11-15T04:10:58.966Z,9.40
2022-11-15T04:13:44.407Z,9.50
2022-11-15T04:16:29.793Z,9.50
2022-11-15T04:19:33.532Z,9.40
2022-11-15T04:22:37.188Z,9.40
2022-11-15T04:25:24.670Z,9.40
2022-11-15T04:28:12.988Z,9.40
2022-11-15T04:30:58.222Z,9.30
2022-11-15T04:33:43.817Z,9.30
2022-11-15T04:36:47.621Z,9.30
2022-11-15T04:39:32.981Z,9.20
2022-11-15T04:42:18.791Z,9.20
2022-11-15T04:45:04.877Z,9.20
2022-11-15T04:47:50.339Z,9.20
2022-11-15T04:50:35.638Z,9.10
2022-11-15T04:53:21.144Z,9.10
2022-11-15T04:56:06.676Z,9.10
2022-11-15T04:58:52.104Z,9.10
2022-11-15T05:01:41.905Z,9.10
2022-11-15T05:04:30.136Z,9.10
2022-11-15T05:07:15.345Z,9.10
2022-11-15T05:10:01.186Z,9.10
2022-11-15T05:12:47.679Z,9.10
2022-11-15T05:15:40.166Z,9.10
2022-11-15T05:18:25.253Z,9.00
2022-11-15T05:21:13.374Z,9.00
2022-11-15T05:23:58.969Z,9.00
2022-11-15T05:26:44.506Z,9.00
2022-11-15T05:29:30.032Z,9.10
2022-11-15T05:32:15.785Z,9.00
2022-11-15T05:35:00.892Z,9.00
2022-11-15T05:37:46.680Z,8.90
2022-11-15T05:40:33.049Z,8.90
2022-11-15T05:43:21.355Z,8.90
2022-11-15T05:46:06.731Z,8.80
2022-11-15T05:48:52.679Z,8.70
2022-11-15T05:51:38.285Z,8.80
2022-11-15T05:54:23.747Z,8.80
2022-11-15T05:57:09.223Z,8.70
2022-11-15T05:59:54.780Z,8.70
2022-11-15T06:02:39.996Z,8.70
2022-11-15T06:05:25.266Z,8.70
2022-11-15T06:08:10.701Z,8.70
2022-11-15T06:10:56.337Z,8.60
2022-11-15T06:13:41.810Z,8.60
2022-11-15T06:16:27.122Z,8.50
2022-11-15T06:19:12.258Z,8.40
2022-11-15T06:21:57.792Z,8.40
2022-11-15T06:24:44.832Z,8.40
2022-11-15T06:27:30.500Z,8.30
2022-11-15T06:30:15.838Z,8.30
2022-11-15T06:33:02.653Z,8.30
2022-11-15T06:35:47.901Z,8.20
2022-11-15T06:38:33.489Z,8.20
2022-11-15T06:41:19.055Z,8.20
2022-11-15T06:44:04.330Z,8.20
2022-11-15T06:46:49.439Z,8.10
2022-11-15T06:49:35.187Z,8.10
2022-11-15T06:52:20.535Z,8.10
2022-11-15T06:55:06.680Z,8.00
2022-11-15T06:57:52.328Z,8.00
2022-11-15T07:00:38.815Z,8.00
2022-11-15T07:03:24.095Z,8.00
2022-11-15T07:06:09.807Z,7.90
2022-11-15T07:08:55.389Z,8.00
2022-11-15T07:11:40.984Z,7.90
2022-11-15T07:14:26.272Z,8.00
2022-11-15T07:17:11.881Z,8.00
2022-11-15T07:19:57.212Z,8.00
2022-11-15T07:22:42.755Z,8.00
2022-11-15T07:25:28.176Z,8.00
2022-11-15T07:28:13.675Z,8.00
2022-11-15T07:30:59.200Z,8.00
2022-11-15T07:33:44.470Z,8.00
2022-11-15T07:36:30.049Z,8.10
2022-11-15T07:39:15.660Z,8.10
2022-11-15T07:42:19.588Z,8.10
2022-11-15T07:45:05.956Z,8.10
2022-11-15T07:47:51.647Z,8.10
2022-11-15T07:50:37.007Z,8.20
2022-11-15T07:53:22.493Z,8.20
2022-11-15T07:56:08.508Z,8.30
2022-11-15T07:58:54.187Z,8.30
2022-11-15T08:01:39.752Z,8.30
2022-11-15T08:04:25.052Z,8.40
2022-11-15T08:07:10.684Z,8.40
2022-11-15T08:09:56.152Z,8.40
2022-11-15T08:12:41.818Z,8.40
2022-11-15T08:15:27.358Z,8.50
2022-11-15T08:18:14.228Z,8.50
2022-11-15T08:21:00.767Z,8.50
2022-11-15T08:23:46.241Z,8.60
2022-11-15T08:26:31.358Z,8.60
2022-11-15T08:29:16.607Z,8.70
2022-11-15T08:32:01.632Z,8.80
2022-11-15T08:34:47.062Z,8.80
2022-11-15T08:37:32.410Z,8.80
2022-11-15T08:40:19.611Z,8.80
2022-11-15T08:43:04.767Z,8.90
2022-11-15T08:45:50.295Z,8.90
2022-11-15T08:48:35.650Z,8.90
2022-11-15T08:51:21.298Z,8.90
2022-11-15T08:54:06.644Z,8.90
2022-11-15T08:56:52.244Z,9.00
2022-11-15T08:59:37.853Z,9.00
2022-11-15T09:02:23.597Z,9.10
2022-11-15T09:05:09.297Z,9.20
2022-11-15T09:07:55.537Z,9.20
2022-11-15T09:10:41.171Z,9.30
2022-11-15T09:13:26.665Z,9.30
2022-11-15T09:16:13.540Z,9.40
2022-11-15T09:18:59.045Z,9.40
2022-11-15T09:21:44.130Z,9.50
2022-11-15T09:24:29.548Z,9.60
2022-11-15T09:27:15.156Z,9.60
2022-11-15T09:30:00.425Z,9.70
2022-11-15T09:32:45.638Z,9.60
2022-11-15T09:35:30.840Z,9.60
2022-11-15T09:38:16.274Z,9.70
2022-11-15T09:41:18.354Z,9.60
2022-11-15T09:44:25.087Z,9.70
2022-11-15T09:47:34.402Z,9.80
2022-11-15T09:50:37.619Z,9.90
2022-11-15T09:53:04.301Z,9.90
2022-11-15T09:55:41.230Z,10.00
2022-11-15T09:58:27.093Z,10.10
2022-11-15T10:00:54.494Z,10.10
2022-11-15T10:03:31.735Z,10.10
2022-11-15T10:06:01.503Z,10.10
2022-11-15T10:08:48.834Z,10.10
2022-11-15T10:11:38.183Z,10.00
2022-11-15T10:14:16.295Z,10.00
2022-11-15T10:17:17.204Z,10.00
2022-11-15T10:20:08.337Z,10.10
2022-11-15T10:22:51.960Z,10.20
2022-11-15T10:25:19.912Z,10.40
2022-11-15T10:27:53.973Z,10.50
2022-11-15T10:30:20.709Z,10.60
2022-11-15T10:32:48.152Z,10.60
2022-11-15T10:35:26.304Z,10.70
2022-11-15T10:37:52.965Z,10.70
2022-11-15T10:40:22.392Z,10.70
2022-11-15T10:42:50.141Z,10.70
2022-11-15T10:45:31.583Z,10.80
2022-11-15T10:48:13.563Z,10.90
2022-11-15T10:50:44.327Z,10.90
2022-11-15T10:53:33.282Z,10.90
2022-11-15T10:56:03.716Z,11.00
2022-11-15T10:58:37.857Z,11.10
2022-11-15T11:01:21.400Z,11.10
2022-11-15T11:04:06.807Z,11.10
2022-11-15T11:06:56.816Z,11.20
2022-11-15T11:09:43.874Z,11.20
2022-11-15T11:12:11.835Z,11.20
2022-11-15T11:14:39.728Z,11.20
2022-11-15T11:17:14.355Z,11.20
2022-11-15T11:20:08.422Z,11.20
2022-11-15T11:22:54.109Z,11.20
2022-11-15T11:25:24.048Z,11.20
2022-11-15T11:28:25.761Z,11.20
2022-11-15T11:31:07.329Z,11.30
2022-11-15T11:33:54.335Z,11.30
2022-11-15T11:36:53.275Z,11.50
2022-11-15T11:39:39.849Z,11.50
2022-11-15T11:42:17.461Z,11.60
2022-11-15T11:45:14.560Z,11.60
2022-11-15T11:47:45.156Z,11.80
2022-11-15T11:50:18.854Z,11.80
2022-11-15T11:52:59.478Z,11.80
2022-11-15T11:55:37.349Z,11.90
2022-11-15T11:58:24.137Z,11.80
2022-11-15T12:00:53.549Z,11.90
2022-11-15T12:03:40.904Z,11.90
2022-11-15T12:06:25.015Z,11.80
2022-11-15T12:09:00.782Z,11.90
2022-11-15T12:11:49.156Z,11.90
2022-11-15T12:14:56.091Z,11.80
2022-11-15T12:17:28.288Z,11.90
2022-11-15T12:20:04.823Z,11.80
2022-11-15T12:22:58.072Z,11.80
2022-11-15T12:25:30.388Z,11.80
2022-11-15T12:28:19.963Z,11.80
2022-11-15T12:31:04.779Z,11.90
2022-11-15T12:33:39.304Z,11.90
2022-11-15T12:36:09.736Z,11.90
2022-11-15T12:39:07.661Z,11.90
2022-11-15T12:41:35.688Z,12.00
2022-11-15T12:44:02.634Z,12.00
2022-11-15T12:46:32.385Z,12.10
2022-11-15T12:49:03.719Z,12.30
2022-11-15T12:51:48.842Z,12.50
2022-11-15T12:54:24.646Z,12.80
2022-11-15T12:57:06.812Z,13.00
2022-11-15T12:59:59.700Z,13.00
2022-11-15T13:02:46.597Z,12.90
2022-11-15T13:05:17.017Z,12.90
2022-11-15T13:07:44.075Z,12.80
2022-11-15T13:10:13.791Z,12.70
2022-11-15T13:12:46.211Z,12.60
2022-11-15T13:15:12.840Z,12.60
2022-11-15T13:17:42.586Z,12.50
2022-11-15T13:20:11.385Z,12.40
2022-11-15T13:23:00.277Z,12.40
2022-11-15T13:25:45.224Z,12.30
2022-11-15T13:28:14.902Z,12.30
2022-11-15T13:30:47.812Z,12.20
2022-11-15T13:33:25.747Z,12.30
2022-11-15T13:35:57.285Z,12.30
2022-11-15T13:38:34.331Z,12.40
2022-11-15T13:41:11.259Z,12.40
2022-11-15T13:43:38.097Z,12.40
2022-11-15T13:46:15.047Z,12.40
2022-11-15T13:48:42.674Z,12.50
2022-11-15T13:51:25.702Z,12.40
2022-11-15T13:54:00.814Z,12.40
2022-11-15T13:56:27.634Z,12.40
2022-11-15T13:58:55.746Z,12.50
2022-11-15T14:01:22.652Z,12.40
2022-11-15T14:03:58.174Z,12.40
2022-11-15T14:06:26.749Z,12.40
2022-11-15T14:09:01.487Z,12.40
2022-11-15T14:11:28.222Z,12.40
2022-11-15T14:14:10.358Z,12.40
2022-11-15T14:16:42.028Z,12.40
2022-11-15T14:19:12.588Z,12.40
2022-11-15T14:21:59.202Z,12.40
2022-11-15T14:24:25.910Z,12.40
2022-11-15T14:26:52.592Z,12.40
2022-11-15T14:29:37.460Z,12.30
2022-11-15T14:32:14.375Z,12.30
2022-11-15T14:34:41.105Z,12.20
2022-11-15T14:37:22.092Z,12.20
2022-11-15T14:39:49.051Z,12.20
2022-11-15T14:42:15.706Z,12.20
2022-11-15T14:44:45.957Z,12.20
2022-11-15T14:47:13.050Z,12.20
2022-11-15T14:49:39.785Z,12.20
2022-11-15T14:52:32.193Z,12.10
2022-11-15T14:55:00.195Z,12.10
2022-11-15T14:57:26.958Z,12.10
2022-11-15T14:59:54.575Z,12.10
2022-11-15T15:02:26.029Z,12.10
2022-11-15T15:04:52.763Z,12.00
2022-11-15T15:07:19.601Z,12.00
2022-11-15T15:09:46.680Z,12.00
2022-11-15T15:12:23.716Z,12.00
2022-11-15T15:14:51.106Z,12.00
2022-11-15T15:17:17.931Z,11.90
2022-11-15T15:19:44.617Z,11.90
2022-11-15T15:22:19.642Z,11.90
2022-11-15T15:24:46.749Z,11.90
2022-11-15T15:27:13.523Z,11.80
2022-11-15T15:29:40.301Z,11.80
2022-11-15T15:32:07.015Z,11.80
2022-11-15T15:34:33.790Z,11.70
2022-11-15T15:37:23.606Z,11.70
2022-11-15T15:39:53.945Z,11.70
2022-11-15T15:42:20.885Z,11.70
2022-11-15T15:44:48.452Z,11.60
2022-11-15T15:47:16.840Z,11.60
2022-11-15T15:49:43.657Z,11.60
2022-11-15T15:52:10.341Z,11.60
2022-11-15T15:54:37.005Z,11.60
2022-11-15T15:57:04.068Z,11.50
2022-11-15T15:59:30.805Z,11.50
2022-11-15T16:01:57.644Z,11.50
2022-11-15T16:04:24.629Z,11.50
2022-11-15T16:06:53.499Z,11.50
2022-11-15T16:09:40.610Z,11.50
2022-11-15T16:12:07.289Z,11.50
2022-11-15T16:14:33.988Z,11.50
2022-11-15T16:17:00.641Z,11.50
2022-11-15T16:19:27.316Z,11.50
2022-11-15T16:21:53.967Z,11.50
2022-11-15T16:24:21.000Z,11.40
2022-11-15T16:26:48.193Z,11.40
2022-11-15T16:29:14.860Z,11.40
2022-11-15T16:31:41.574Z,11.40
2022-11-15T16:34:08.333Z,11.40
2022-11-15T16:36:35.191Z,11.40
2022-11-15T16:39:04.888Z,11.40
2022-11-15T16:41:31.598Z,11.40
2022-11-15T16:43:58.276Z,11.40
2022-11-15T16:46:26.150Z,11.40
2022-11-15T16:48:53.840Z,11.30
2022-11-15T16:51:20.786Z,11.40
2022-11-15T16:53:49.057Z,11.40
2022-11-15T16:56:29.228Z,11.30
2022-11-15T16:58:58.377Z,11.30
2022-11-15T17:01:26.582Z,11.30
2022-11-15T17:03:55.829Z,11.30
2022-11-15T17:06:23.066Z,11.30
2022-11-15T17:08:49.746Z,11.40
2022-11-15T17:11:18.670Z,11.40
2022-11-15T17:13:57.304Z,11.30
2022-11-15T17:16:24.346Z,11.30
2022-11-15T17:18:53.583Z,11.30
2022-11-15T17:21:23.908Z,11.30
2022-11-15T17:23:51.359Z,11.30
2022-11-15T17:26:29.592Z,11.30
2022-11-15T17:28:57.416Z,11.30
2022-11-15T17:31:25.275Z,11.30
2022-11-15T17:33:52.017Z,11.30
2022-11-15T17:36:18.787Z,11.30
2022-11-15T17:38:50.244Z,11.30
2022-11-15T17:41:17.040Z,11.30
2022-11-15T17:43:43.741Z,11.30
2022-11-15T17:46:14.886Z,11.30
2022-11-15T17:48:43.100Z,11.30
2022-11-15T17:51:11.118Z,11.20
2022-11-15T17:53:39.078Z,11.30
2022-11-15T17:56:16.360Z,11.30
2022-11-15T17:58:47.111Z,11.30
2022-11-15T18:01:30.809Z,11.30
2022-11-15T18:04:00.300Z,11.30
2022-11-15T18:06:28.537Z,11.20
2022-11-15T18:08:57.956Z,11.30
2022-11-15T18:11:32.843Z,11.30
2022-11-15T18:14:01.240Z,11.20
2022-11-15T18:16:30.754Z,11.20
2022-11-15T18:18:57.697Z,11.20
2022-11-15T18:21:26.056Z,11.20
2022-11-15T18:23:53.896Z,11.20
2022-11-15T18:26:25.692Z,11.20
2022-11-15T18:29:04.038Z,11.20
2022-11-15T18:31:31.305Z,11.20
2022-11-15T18:34:01.162Z,11.20
2022-11-15T18:36:29.130Z,11.20
2022-11-15T18:38:56.735Z,11.20
2022-11-15T18:41:30.664Z,11.20
2022-11-15T18:43:58.461Z,11.20
2022-11-15T18:46:26.427Z,11.20
2022-11-15T18:48:53.905Z,11.20
2022-11-15T18:51:25.380Z,11.10
2022-11-15T18:54:01.509Z,11.20
2022-11-15T18:56:29.161Z,11.20
2022-11-15T18:58:57.062Z,11.10
2022-11-15T19:01:25.591Z,11.20
2022-11-15T19:03:53.751Z,11.20
2022-11-15T19:06:22.680Z,11.20
2022-11-15T19:08:50.943Z,11.20
2022-11-15T19:11:19.344Z,11.10
2022-11-15T19:13:48.616Z,11.20
2022-11-15T19:16:15.805Z,11.20
2022-11-15T19:18:42.527Z,11.10
2022-11-15T19:21:14.747Z,11.20
2022-11-15T19:23:42.665Z,11.20
2022-11-15T19:26:15.355Z,11.10
2022-11-15T19:28:42.514Z,11.20
2022-11-15T19:31:16.388Z,11.20
2022-11-15T19:33:44.048Z,11.20
2022-11-15T19:36:21.564Z,11.20
2022-11-15T19:38:48.239Z,11.20
2022-11-15T19:41:16.685Z,11.20
2022-11-15T19:43:43.342Z,11.20
2022-11-15T19:46:11.666Z,11.20
2022-11-15T19:48:38.419Z,11.20
2022-11-15T19:51:06.930Z,11.20
2022-11-15T19:53:35.227Z,11.20
2022-11-15T19:56:13.152Z,11.20
2022-11-15T19:58:40.497Z,11.20
2022-11-15T20:01:28.375Z,11.20
2022-11-15T20:03:55.954Z,11.20
2022-11-15T20:06:25.116Z,11.20
2022-11-15T20:08:51.783Z,11.20
2022-11-15T20:11:18.728Z,11.20
2022-11-15T20:13:45.528Z,11.20
2022-11-15T20:16:20.052Z,11.20
2022-11-15T20:18:47.215Z,11.20
2022-11-15T20:21:13.863Z,11.20
2022-11-15T20:23:40.533Z,11.20
2022-11-15T20:26:07.978Z,11.20
2022-11-15T20:28:35.907Z,11.20
2022-11-15T20:31:02.808Z,11.20
2022-11-15T20:33:29.560Z,11.30
2022-11-15T20:36:07.555Z,11.30
2022-11-15T20:39:11.602Z,11.30
2022-11-15T20:41:38.273Z,11.30
2022-11-15T20:44:05.077Z,11.30
2022-11-15T20:46:31.742Z,11.30
2022-11-15T20:48:58.489Z,11.30
2022-11-15T20:51:25.199Z,11.30
2022-11-15T20:53:51.919Z,11.30
2022-11-15T20:56:20.632Z,11.30
2022-11-15T20:58:48.134Z,11.30
2022-11-15T21:01:15.421Z,11.30
2022-11-15T21:03:42.428Z,11.30
2022-11-15T21:06:09.637Z,11.30
2022-11-15T21:08:54.762Z,11.30
2022-11-15T21:11:40.005Z,11.30
2022-11-15T21:14:09.481Z,11.30
2022-11-15T21:16:36.889Z,11.30
2022-11-15T21:19:04.002Z,11.30
2022-11-15T21:21:30.945Z,11.30
2022-11-15T21:23:57.596Z,11.30
2022-11-15T21:26:24.250Z,11.20
2022-11-15T21:28:50.903Z,11.30
2022-11-15T21:31:17.569Z,11.30
2022-11-15T21:33:44.230Z,11.30
2022-11-15T21:36:10.880Z,11.30
2022-11-15T21:38:38.163Z,11.30
2022-11-15T21:41:05.048Z,11.20
2022-11-15T21:43:31.772Z,11.30
2022-11-15T21:46:07.101Z,11.30
2022-11-15T21:48:35.352Z,11.30
2022-11-15T21:51:07.013Z,11.30
2022-11-15T21:53:33.812Z,11.30
2022-11-15T21:56:00.985Z,11.30
2022-11-15T21:58:27.759Z,11.30
2022-11-15T22:01:13.474Z,11.30
2022-11-15T22:03:40.496Z,11.30
2022-11-15T22:06:07.287Z,11.30
2022-11-15T22:08:34.335Z,11.30
2022-11-15T22:11:01.536Z,11.30
2022-11-15T22:13:28.483Z,11.30
2022-11-15T22:15:55.323Z,11.30
2022-11-15T22:18:26.422Z,11.30
2022-11-15T22:21:04.591Z,11.30
2022-11-15T22:23:32.476Z,11.30
2022-11-15T22:25:59.408Z,11.40
2022-11-15T22:28:26.333Z,11.30
2022-11-15T22:30:54.184Z,11.30
2022-11-15T22:33:23.416Z,11.30
2022-11-15T22:35:50.191Z,11.30
2022-11-15T22:38:16.999Z,11.40
2022-11-15T22:40:44.012Z,11.40
2022-11-15T22:43:12.507Z,11.40
2022-11-15T22:45:47.512Z,11.40
2022-11-15T22:48:14.289Z,11.40
2022-11-15T22:50:42.520Z,11.40
2022-11-15T22:53:09.274Z,11.40
2022-11-15T22:55:38.601Z,11.40
2022-11-15T22:58:05.367Z,11.40
2022-11-15T23:00:32.047Z,11.30
2022-11-15T23:02:58.739Z,11.40
2022-11-15T23:05:25.429Z,11.40
2022-11-15T23:07:52.131Z,11.40
2022-11-15T23:10:37.667Z,11.40
2022-11-15T23:13:17.059Z,11.40
2022-11-15T23:16:03.942Z,11.40
2022-11-15T23:18:36.926Z,11.40
2022-11-15T23:21:11.677Z,11.40
2022-11-15T23:23:38.579Z,11.40
2022-11-15T23:26:05.806Z,11.40
2022-11-15T23:28:33.370Z,11.40
2022-11-15T23:48:16.434Z,11.40
2022-11-15T23:50:43.130Z,11.40
2022-11-15T23:53:09.921Z,11.40
2022-11-15T23:55:36.811Z,11.30
2022-11-15T23:58:03.496Z,11.20
